Time;durP1;ratioP1;P1;durP2;ratioP2;P2;SDS_P1;SDS_P2;PMS_P1;PMS_P2;Temp;Humidity;BMP_temperature;BMP_pressure;BME280_temperature;BME280_humidity;BME280_pressure;Samples;Min_cycle;Max_cycle;Signal;HPM_P1;HPM_P2
2024/04/18 00:00:40;;;;;;;1.50;1.30;;;6.50;98.20;;;;;;5333089;26;21059;-80
2024/04/18 00:03:08;;;;;;;1.50;1.30;;;6.50;98.20;;;;;;5311998;26;20502;-80
2024/04/18 00:05:34;;;;;;;1.57;1.30;;;6.60;98.20;;;;;;5334650;26;20705;-80
2024/04/18 00:08:03;;;;;;;1.57;1.30;;;6.60;98.20;;;;;;5317929;26;20494;-80
2024/04/18 00:10:28;;;;;;;1.53;1.23;;;6.50;98.20;;;;;;5330462;26;20334;-80
2024/04/18 00:12:57;;;;;;;1.50;1.30;;;6.50;98.20;;;;;;5329016;26;20506;-79
2024/04/18 00:15:26;;;;;;;1.60;1.40;;;6.50;98.20;;;;;;5336953;26;20616;-80
2024/04/18 00:17:54;;;;;;;1.60;1.20;;;6.50;98.20;;;;;;5312115;26;20550;-80
2024/04/18 00:20:20;;;;;;;1.50;1.20;;;6.50;98.20;;;;;;5328279;26;20629;-79
2024/04/18 00:22:51;;;;;;;1.57;1.30;;;6.50;98.20;;;;;;5314772;26;20511;-81
2024/04/18 00:25:17;;;;;;;1.50;1.20;;;6.50;98.20;;;;;;5334451;26;20285;-81
2024/04/18 00:27:46;;;;;;;1.50;1.30;;;6.50;98.20;;;;;;5313166;26;20955;-80
2024/04/18 00:30:12;;;;;;;1.50;1.20;;;6.50;98.20;;;;;;5328450;26;20283;-80
2024/04/18 00:32:43;;;;;;;1.50;1.30;;;6.50;98.20;;;;;;5326228;26;20506;-80
2024/04/18 00:35:09;;;;;;;1.57;1.30;;;6.50;98.20;;;;;;5329555;26;20322;-80
2024/04/18 00:37:38;;;;;;;1.50;1.20;;;6.50;98.20;;;;;;5323920;26;20505;-79
2024/04/18 00:40:04;;;;;;;1.50;1.30;;;6.50;98.20;;;;;;5341425;26;20236;-80
2024/04/18 00:42:33;;;;;;;1.53;1.20;;;6.40;98.20;;;;;;5325059;26;20638;-80
2024/04/18 00:44:59;;;;;;;1.50;1.30;;;6.40;98.20;;;;;;5330809;26;20554;-80
2024/04/18 00:47:27;;;;;;;1.50;1.23;;;6.40;98.20;;;;;;5324182;26;20596;-79
2024/04/18 00:49:56;;;;;;;1.53;1.30;;;6.50;98.20;;;;;;5333918;26;20550;-80
2024/04/18 00:52:25;;;;;;;1.50;1.23;;;6.40;98.20;;;;;;5311967;26;20491;-79
2024/04/18 00:54:51;;;;;;;1.53;1.30;;;6.40;98.20;;;;;;5325383;26;20486;-80
2024/04/18 00:57:20;;;;;;;1.50;1.20;;;6.40;98.20;;;;;;5321708;26;21031;-80
2024/04/18 00:59:47;;;;;;;1.50;1.20;;;6.50;98.20;;;;;;5332434;26;20263;-80
2024/04/18 01:02:16;;;;;;;1.50;1.20;;;6.50;98.20;;;;;;5321372;26;20506;-79
2024/04/18 01:04:42;;;;;;;1.50;1.27;;;6.50;98.20;;;;;;5329043;26;20482;-80
2024/04/18 01:07:13;;;;;;;1.50;1.30;;;6.50;98.20;;;;;;5321628;26;20614;-79
2024/04/18 01:09:39;;;;;;;1.50;1.20;;;6.40;98.20;;;;;;5331156;26;20236;-79
2024/04/18 01:12:08;;;;;;;1.50;1.30;;;6.40;98.20;;;;;;5319849;26;20948;-80
2024/04/18 01:14:34;;;;;;;1.50;1.30;;;6.40;98.20;;;;;;5326781;26;20344;-81
2024/04/18 01:17:03;;;;;;;1.50;1.17;;;6.40;98.20;;;;;;5320096;26;20501;-80
2024/04/18 01:19:29;;;;;;;1.50;1.30;;;6.40;98.20;;;;;;5330034;26;20315;-81
2024/04/18 01:21:58;;;;;;;1.53;1.30;;;6.40;98.20;;;;;;5320923;26;20972;-81
2024/04/18 01:24:27;;;;;;;1.57;1.30;;;6.40;98.20;;;;;;5328427;26;20487;-80
2024/04/18 01:26:58;;;;;;;1.50;1.27;;;6.50;98.20;;;;;;5322930;26;21166;-80
2024/04/18 01:29:23;;;;;;;1.60;1.30;;;6.50;98.20;;;;;;5328742;26;20587;-80
2024/04/18 01:31:52;;;;;;;1.50;1.23;;;6.50;98.20;;;;;;5329884;26;21132;-80
2024/04/18 01:34:18;;;;;;;1.50;1.23;;;6.50;98.20;;;;;;5331864;26;20374;-80
2024/04/18 01:36:48;;;;;;;1.50;1.30;;;6.50;98.20;;;;;;5310898;26;20513;-80
2024/04/18 01:39:14;;;;;;;1.53;1.30;;;6.50;98.20;;;;;;5331644;26;20479;-80
2024/04/18 01:41:42;;;;;;;1.50;1.20;;;6.50;98.20;;;;;;5321838;26;21145;-79
2024/04/18 01:44:12;;;;;;;1.50;1.30;;;6.50;98.20;;;;;;5317993;26;20624;-80
2024/04/18 01:46:40;;;;;;;1.50;1.30;;;6.60;98.20;;;;;;5308509;26;20500;-80
2024/04/18 01:49:06;;;;;;;1.57;1.30;;;6.60;98.20;;;;;;5329148;26;20487;-80
2024/04/18 01:51:35;;;;;;;1.50;1.20;;;6.60;98.20;;;;;;5298886;26;20600;-80
2024/04/18 01:54:01;;;;;;;1.50;1.23;;;6.60;98.20;;;;;;5321042;26;20255;-80
2024/04/18 01:56:29;;;;;;;1.50;1.30;;;6.60;98.20;;;;;;5306848;26;20550;-80
2024/04/18 01:58:55;;;;;;;1.50;1.30;;;6.60;98.20;;;;;;5321942;26;20255;-80
2024/04/18 02:01:29;;;;;;;1.50;1.30;;;6.50;98.20;;;;;;5320091;26;20850;-80
2024/04/18 02:03:55;;;;;;;1.50;1.30;;;6.50;98.20;;;;;;5329185;26;20244;-80
2024/04/18 02:06:23;;;;;;;1.50;1.30;;;6.40;98.20;;;;;;5309436;26;20601;-80
2024/04/18 02:08:49;;;;;;;1.50;1.30;;;6.40;98.20;;;;;;5327986;26;20259;-80
2024/04/18 02:11:18;;;;;;;1.53;1.30;;;6.30;98.20;;;;;;5308609;26;21166;-80
2024/04/18 02:13:43;;;;;;;1.50;1.23;;;6.30;98.20;;;;;;5315286;26;20301;-81
2024/04/18 02:16:12;;;;;;;1.53;1.30;;;6.30;98.20;;;;;;5328935;26;20589;-80
2024/04/18 02:18:40;;;;;;;1.53;1.30;;;6.20;98.20;;;;;;5325416;26;20319;-81
2024/04/18 02:21:09;;;;;;;1.50;1.27;;;6.20;98.20;;;;;;5325855;26;20547;-80
2024/04/18 02:23:35;;;;;;;1.50;1.20;;;6.20;98.20;;;;;;5338047;26;20486;-80
2024/04/18 02:26:03;;;;;;;1.57;1.37;;;6.20;98.20;;;;;;5311421;26;21318;-80
2024/04/18 02:28:29;;;;;;;1.53;1.20;;;6.20;98.20;;;;;;5328510;26;20244;-80
2024/04/18 02:31:03;;;;;;;1.57;1.30;;;6.20;98.20;;;;;;5310137;26;20644;-80
2024/04/18 02:33:29;;;;;;;1.53;1.30;;;6.20;98.20;;;;;;5330292;26;20594;-80
2024/04/18 02:36:00;;;;;;;1.60;1.30;;;6.20;98.20;;;;;;5321118;26;20553;-80
2024/04/18 02:38:26;;;;;;;1.50;1.30;;;6.20;98.20;;;;;;5311104;26;20572;-80
2024/04/18 02:41:03;;;;;;;1.53;1.30;;;6.20;98.20;;;;;;5318256;26;20489;-80
2024/04/18 02:43:29;;;;;;;1.60;1.30;;;6.20;98.20;;;;;;5317273;26;20500;-79
2024/04/18 02:45:57;;;;;;;1.53;1.30;;;6.20;98.20;;;;;;5314165;26;20462;-81
2024/04/18 02:48:23;;;;;;;1.50;1.30;;;6.20;98.20;;;;;;5300114;26;20252;-80
2024/04/18 02:50:52;;;;;;;1.50;1.20;;;6.20;98.20;;;;;;5329086;26;20582;-80
2024/04/18 02:53:21;;;;;;;1.50;1.30;;;6.20;98.20;;;;;;5329449;26;20311;-80
2024/04/18 02:55:49;;;;;;;1.57;1.30;;;6.20;98.20;;;;;;5325801;26;20485;-80
2024/04/18 02:58:15;;;;;;;1.60;1.40;;;6.20;98.20;;;;;;5325768;26;20550;-80
2024/04/18 03:00:43;;;;;;;1.50;1.30;;;6.20;98.20;;;;;;5329335;26;20483;-80
2024/04/18 03:03:09;;;;;;;1.50;1.30;;;6.20;98.20;;;;;;5313407;26;20350;-80
2024/04/18 03:05:37;;;;;;;1.50;1.30;;;6.10;98.20;;;;;;5340556;26;20489;-80
2024/04/18 03:08:04;;;;;;;1.50;1.20;;;6.10;98.20;;;;;;5324763;26;20263;-80
2024/04/18 03:10:35;;;;;;;1.50;1.23;;;6.10;98.20;;;;;;5332331;26;20983;-80
2024/04/18 03:13:01;;;;;;;1.50;1.20;;;6.00;98.20;;;;;;5322545;26;21233;-80
2024/04/18 03:15:30;;;;;;;1.50;1.30;;;6.00;98.20;;;;;;5330844;26;20490;-80
2024/04/18 03:17:56;;;;;;;1.50;1.30;;;5.90;98.20;;;;;;5297920;26;20495;-80
2024/04/18 03:20:24;;;;;;;1.50;1.30;;;5.90;98.20;;;;;;5329622;26;20530;-80
2024/04/18 03:22:50;;;;;;;1.60;1.43;;;5.90;98.20;;;;;;5330590;26;20303;-80
2024/04/18 03:25:18;;;;;;;1.57;1.30;;;5.80;98.20;;;;;;5326536;26;20487;-81
2024/04/18 03:27:56;;;;;;;1.50;1.30;;;5.80;98.20;;;;;;5313979;26;20853;-80
2024/04/18 03:30:24;;;;;;;1.50;1.30;;;5.70;98.20;;;;;;5333696;26;20563;-80
2024/04/18 03:32:50;;;;;;;1.57;1.30;;;5.80;98.20;;;;;;5318671;26;20514;-81
2024/04/18 03:35:19;;;;;;;1.50;1.20;;;5.80;98.20;;;;;;5335351;26;20536;-80
2024/04/18 03:37:47;;;;;;;1.50;1.30;;;5.80;98.20;;;;;;5326684;26;20317;-80
2024/04/18 03:40:16;;;;;;;1.57;1.30;;;5.80;98.20;;;;;;5326015;26;20525;-79
2024/04/18 03:42:44;;;;;;;1.53;1.30;;;5.80;98.20;;;;;;5303896;26;20655;-81
2024/04/18 03:45:15;;;;;;;1.57;1.30;;;5.90;98.20;;;;;;5324824;26;20495;-81
2024/04/18 03:47:41;;;;;;;1.53;1.30;;;5.90;98.20;;;;;;5322250;26;20636;-80
2024/04/18 03:50:10;;;;;;;1.60;1.30;;;6.00;98.20;;;;;;5342510;26;20871;-81
2024/04/18 03:52:36;;;;;;;1.57;1.30;;;6.00;98.20;;;;;;5315768;26;20293;-80
2024/04/18 03:55:04;;;;;;;1.50;1.30;;;6.00;98.20;;;;;;5319872;26;20552;-80
2024/04/18 03:57:30;;;;;;;1.53;1.30;;;6.00;98.20;;;;;;5322214;26;20414;-80
2024/04/18 03:59:58;;;;;;;1.60;1.30;;;6.00;98.20;;;;;;5329533;26;20590;-81
2024/04/18 04:02:30;;;;;;;1.50;1.27;;;6.00;98.20;;;;;;5314419;26;20281;-80
2024/04/18 04:04:58;;;;;;;1.87;1.77;;;6.00;98.20;;;;;;5320448;26;20522;-81
2024/04/18 04:07:24;;;;;;;1.57;1.30;;;6.10;98.20;;;;;;5310460;26;20971;-81
2024/04/18 04:09:53;;;;;;;1.50;1.30;;;6.10;98.20;;;;;;5321383;26;20485;-81
2024/04/18 04:12:19;;;;;;;1.53;1.30;;;6.10;98.20;;;;;;5308409;26;20271;-81
2024/04/18 04:14:47;;;;;;;1.53;1.30;;;6.10;98.20;;;;;;5322948;26;20542;-81
2024/04/18 04:17:13;;;;;;;1.50;1.30;;;6.10;98.20;;;;;;5321321;26;20364;-80
2024/04/18 04:19:44;;;;;;;1.50;1.20;;;6.20;98.20;;;;;;5323860;26;20579;-81
2024/04/18 04:22:10;;;;;;;1.57;1.30;;;6.20;98.20;;;;;;5321961;26;20260;-82
2024/04/18 04:24:39;;;;;;;1.50;1.20;;;6.20;98.20;;;;;;5334568;26;20518;-82
2024/04/18 04:27:07;;;;;;;1.50;1.30;;;6.10;98.20;;;;;;5320942;26;20625;-81
2024/04/18 04:29:35;;;;;;;1.60;1.40;;;6.10;98.20;;;;;;5341293;26;20551;-81
2024/04/18 04:32:01;;;;;;;1.50;1.20;;;6.10;98.20;;;;;;5318055;26;20529;-82
2024/04/18 04:34:30;;;;;;;1.57;1.30;;;6.10;98.20;;;;;;5334124;26;20486;-81
2024/04/18 04:36:58;;;;;;;1.60;1.30;;;6.10;98.20;;;;;;5345106;21;20636;-81
2024/04/18 04:39:28;;;;;;;1.53;1.30;;;6.10;98.20;;;;;;5372799;26;20554;-81
2024/04/18 04:41:57;;;;;;;1.50;1.20;;;6.20;98.20;;;;;;5345205;26;20654;-81
2024/04/18 04:44:26;;;;;;;1.50;1.20;;;6.20;98.20;;;;;;5372678;26;20907;-80
2024/04/18 04:47:14;;;;;;;1.50;1.27;;;6.20;98.20;;;;;;5357920;26;20551;-81
2024/04/18 04:49:50;;;;;;;1.50;1.27;;;6.30;98.20;;;;;;5368179;26;20585;-81
2024/04/18 04:55:32;;;;;;;1.50;1.30;;;6.30;98.20;;;;;;5370326;26;20524;-81
2024/04/18 04:57:58;;;;;;;1.50;1.30;;;6.30;98.20;;;;;;5339160;26;20950;-81
2024/04/18 05:00:27;;;;;;;1.57;1.30;;;6.30;98.20;;;;;;5370034;26;20469;-81
2024/04/18 05:02:52;;;;;;;1.50;1.30;;;6.40;98.20;;;;;;5362334;26;20261;-81
2024/04/18 05:05:21;;;;;;;1.57;1.30;;;6.40;98.20;;;;;;5367333;26;20572;-81
2024/04/18 05:07:49;;;;;;;1.53;1.30;;;6.40;98.20;;;;;;5339853;26;20919;-80
2024/04/18 05:10:18;;;;;;;1.53;1.27;;;6.40;98.20;;;;;;5368595;26;21040;-80
2024/04/18 05:12:44;;;;;;;1.50;1.30;;;6.40;98.20;;;;;;5359788;26;20540;-80
2024/04/18 05:15:12;;;;;;;1.50;1.20;;;6.40;98.20;;;;;;5379368;26;20484;-80
2024/04/18 05:17:38;;;;;;;1.50;1.30;;;6.40;98.20;;;;;;5349505;26;20259;-80
2024/04/18 05:20:07;;;;;;;1.60;1.33;;;6.40;98.20;;;;;;5372853;26;20587;-81
2024/04/18 05:22:33;;;;;;;1.53;1.27;;;6.40;98.20;;;;;;5352179;26;20330;-80
2024/04/18 05:25:04;;;;;;;1.50;1.20;;;6.40;98.20;;;;;;5373942;26;20687;-80
2024/04/18 05:27:32;;;;;;;1.57;1.30;;;6.40;98.20;;;;;;5343145;26;20377;-80
2024/04/18 05:32:45;;;;;;;1.50;1.30;;;6.50;98.20;;;;;;5362358;26;20630;-81
2024/04/18 05:35:17;;;;;;;1.50;1.30;;;6.50;98.20;;;;;;5371560;26;21020;-81
2024/04/18 05:37:45;;;;;;;1.60;1.40;;;6.50;98.20;;;;;;5354064;26;20505;-81
2024/04/18 05:40:17;;;;;;;1.50;1.20;;;6.60;98.20;;;;;;5374429;26;20581;-81
2024/04/18 05:42:45;;;;;;;1.53;1.30;;;6.70;98.20;;;;;;5350180;26;20513;-81
2024/04/18 05:45:16;;;;;;;1.53;1.30;;;6.80;98.20;;;;;;5373644;26;20561;-82
2024/04/18 05:47:45;;;;;;;1.50;1.20;;;6.90;98.20;;;;;;5361139;26;20647;-81
2024/04/18 05:50:11;;;;;;;1.50;1.20;;;6.90;98.20;;;;;;5371835;26;20480;-80
2024/04/18 05:52:39;;;;;;;1.50;1.30;;;6.90;98.20;;;;;;5358610;26;20485;-78
2024/04/18 05:55:08;;;;;;;1.60;1.30;;;7.00;98.20;;;;;;5373712;26;20242;-81
2024/04/18 05:57:45;;;;;;;1.53;1.20;;;7.00;98.20;;;;;;5361819;26;20908;-81
2024/04/18 06:00:26;;;;;;;1.57;1.30;;;7.10;98.20;;;;;;5369400;26;20521;-81
2024/04/18 06:02:55;;;;;;;1.53;1.30;;;7.10;98.20;;;;;;5322775;26;20597;-80
2024/04/18 06:05:25;;;;;;;1.53;1.20;;;7.20;98.20;;;;;;5363459;26;20524;-80
2024/04/18 06:07:56;;;;;;;1.50;1.20;;;7.20;98.20;;;;;;5351406;26;20585;-80
2024/04/18 06:10:25;;;;;;;1.57;1.30;;;7.20;98.20;;;;;;5363548;26;20507;-81
2024/04/18 06:12:56;;;;;;;1.53;1.20;;;7.20;98.20;;;;;;5362583;26;20480;-81
2024/04/18 06:15:24;;;;;;;1.53;1.20;;;7.30;98.20;;;;;;5372490;26;20935;-80
2024/04/18 06:17:53;;;;;;;3.80;3.43;;;7.30;98.20;;;;;;5360540;26;20812;-80
2024/04/18 06:20:22;;;;;;;2.63;2.43;;;7.20;98.20;;;;;;5361606;26;20553;-81
2024/04/18 06:22:51;;;;;;;1.50;1.30;;;7.20;98.20;;;;;;5337894;26;20562;-81
2024/04/18 06:25:19;;;;;;;1.50;1.20;;;7.20;98.20;;;;;;5379821;26;20476;-81
2024/04/18 06:27:48;;;;;;;1.53;1.30;;;7.30;98.20;;;;;;5354540;26;20496;-80
2024/04/18 06:30:19;;;;;;;1.57;1.30;;;7.40;98.20;;;;;;5350113;26;20470;-80
2024/04/18 06:32:47;;;;;;;1.53;1.20;;;7.40;98.20;;;;;;5358361;26;20578;-82
2024/04/18 06:35:19;;;;;;;1.50;1.20;;;7.50;98.20;;;;;;5359606;26;20473;-80
2024/04/18 06:37:48;;;;;;;1.60;1.30;;;7.60;98.20;;;;;;5345960;26;21136;-81
2024/04/18 06:40:19;;;;;;;1.50;1.20;;;7.70;98.20;;;;;;5351218;26;20509;-81
2024/04/18 06:42:47;;;;;;;1.50;1.20;;;7.90;98.20;;;;;;5346877;26;20617;-81
2024/04/18 06:45:24;;;;;;;1.53;1.20;;;8.20;98.20;;;;;;5358757;26;20545;-80
2024/04/18 06:47:53;;;;;;;1.50;1.20;;;8.40;98.20;;;;;;5347435;26;20639;-82
2024/04/18 06:50:21;;;;;;;1.50;1.10;;;8.50;98.20;;;;;;5364085;26;20465;-81
2024/04/18 06:52:57;;;;;;;1.60;1.30;;;8.50;98.20;;;;;;5349529;26;20568;-82
2024/04/18 06:55:25;;;;;;;1.50;1.20;;;8.60;98.20;;;;;;5371122;26;20901;-80
2024/04/18 06:58:02;;;;;;;1.50;1.20;;;8.60;98.20;;;;;;5359530;26;20575;-81
2024/04/18 07:00:33;;;;;;;1.50;1.10;;;8.80;98.20;;;;;;5353229;26;20578;-81
2024/04/18 07:03:02;;;;;;;1.70;1.60;;;9.00;98.20;;;;;;5347427;26;20947;-81
2024/04/18 07:05:30;;;;;;;1.50;1.10;;;9.10;98.20;;;;;;5366760;26;20544;-81
2024/04/18 07:08:00;;;;;;;1.50;1.10;;;9.30;98.20;;;;;;5338852;26;20513;-81
2024/04/18 07:10:28;;;;;;;1.50;1.10;;;9.60;98.20;;;;;;5361058;26;20481;-80
2024/04/18 07:12:57;;;;;;;1.50;1.10;;;9.80;98.20;;;;;;5358917;26;20644;-81
2024/04/18 07:15:25;;;;;;;1.53;1.20;;;9.90;98.20;;;;;;5363369;26;20476;-80
2024/04/18 07:17:57;;;;;;;1.50;1.10;;;10.10;98.20;;;;;;5359848;26;20979;-80
2024/04/18 07:20:30;;;;;;;1.50;1.00;;;10.20;98.20;;;;;;5363120;26;21060;-81
2024/04/18 07:22:58;;;;;;;1.50;1.10;;;10.30;98.20;;;;;;5357486;26;20950;-81
2024/04/18 07:25:30;;;;;;;1.50;1.20;;;10.40;98.20;;;;;;5366334;26;20899;-81
2024/04/18 07:28:01;;;;;;;1.83;1.63;;;10.50;98.20;;;;;;5333946;26;20499;-79
2024/04/18 07:30:29;;;;;;;1.53;1.10;;;10.70;98.20;;;;;;5367761;26;20482;-80
2024/04/18 07:33:03;;;;;;;1.50;1.10;;;10.80;98.20;;;;;;5328687;26;20993;-80
2024/04/18 07:35:33;;;;;;;1.53;1.10;;;11.00;98.20;;;;;;5376063;26;20461;-79
2024/04/18 07:38:01;;;;;;;1.57;1.00;;;11.20;98.20;;;;;;5351494;26;21013;-80
2024/04/18 07:40:30;;;;;;;1.53;1.10;;;11.20;98.20;;;;;;5355918;26;20884;-80
2024/04/18 07:42:58;;;;;;;1.50;1.00;;;11.30;98.20;;;;;;5354975;26;20599;-80
2024/04/18 07:45:28;;;;;;;1.57;1.13;;;11.30;98.20;;;;;;5348482;26;20478;-80
2024/04/18 07:47:56;;;;;;;1.50;1.07;;;11.40;98.20;;;;;;5336336;26;20502;-80
2024/04/18 07:50:27;;;;;;;1.57;1.00;;;11.60;98.20;;;;;;5376124;26;20516;-80
2024/04/18 07:52:56;;;;;;;1.50;1.00;;;11.80;98.20;;;;;;5358328;26;20516;-79
2024/04/18 07:55:26;;;;;;;1.50;1.00;;;11.90;98.20;;;;;;5367258;26;20567;-80
2024/04/18 07:57:55;;;;;;;1.50;1.00;;;12.00;98.20;;;;;;5351005;26;20498;-79
2024/04/18 08:00:25;;;;;;;1.57;1.10;;;12.20;98.20;;;;;;5367382;26;20960;-81
2024/04/18 08:02:54;;;;;;;1.60;1.10;;;12.40;98.20;;;;;;5342669;26;20586;-80
2024/04/18 08:05:22;;;;;;;1.50;1.00;;;12.50;98.20;;;;;;5365290;26;20486;-80
2024/04/18 08:07:53;;;;;;;1.50;1.00;;;12.70;98.20;;;;;;5343638;26;20504;-79
2024/04/18 08:10:22;;;;;;;1.50;1.10;;;12.80;98.20;;;;;;5350126;26;20900;-80
2024/04/18 08:12:51;;;;;;;2.37;2.07;;;12.50;98.20;;;;;;5344371;26;21165;-80
2024/04/18 08:15:19;;;;;;;1.50;1.10;;;12.20;98.20;;;;;;5372079;26;20560;-79
2024/04/18 08:17:50;;;;;;;1.50;1.00;;;11.90;98.20;;;;;;5362493;26;20559;-80
2024/04/18 08:20:22;;;;;;;1.50;1.10;;;11.80;98.20;;;;;;5381588;26;20498;-79
2024/04/18 08:22:54;;;;;;;1.50;1.10;;;11.70;98.20;;;;;;5370553;26;20543;-80
2024/04/18 08:25:22;;;;;;;1.50;1.00;;;11.80;98.20;;;;;;5367879;26;20485;-80
2024/04/18 08:27:51;;;;;;;1.50;1.00;;;12.00;98.20;;;;;;5361977;26;20488;-80
2024/04/18 08:30:19;;;;;;;1.50;1.00;;;12.20;98.20;;;;;;5366934;26;20473;-80
2024/04/18 08:32:52;;;;;;;1.50;1.10;;;12.30;98.20;;;;;;5361667;26;20541;-81
2024/04/18 08:35:23;;;;;;;1.50;1.10;;;12.20;98.20;;;;;;5360415;26;20509;-81
2024/04/18 08:37:54;;;;;;;1.50;1.00;;;12.10;98.20;;;;;;5345393;26;21070;-81
2024/04/18 08:40:23;;;;;;;1.50;1.00;;;11.90;98.20;;;;;;5368603;26;20473;-80
2024/04/18 08:42:51;;;;;;;1.50;1.00;;;11.70;98.20;;;;;;5342986;26;21025;-80
2024/04/18 08:45:24;;;;;;;1.50;1.00;;;11.80;98.20;;;;;;5363086;26;20525;-80
2024/04/18 08:47:53;;;;;;;1.50;1.10;;;12.00;98.20;;;;;;5358378;26;21051;-80
2024/04/18 08:50:25;;;;;;;1.50;1.00;;;12.30;98.20;;;;;;5371222;26;20613;-80
2024/04/18 08:52:58;;;;;;;1.50;1.00;;;12.60;98.20;;;;;;5355655;26;20492;-81
2024/04/18 08:55:26;;;;;;;1.53;1.00;;;12.80;98.20;;;;;;5363380;26;20889;-81
2024/04/18 08:58:03;;;;;;;1.53;1.00;;;13.00;98.20;;;;;;5353067;26;20509;-81
2024/04/18 09:00:32;;;;;;;1.50;1.00;;;13.20;98.20;;;;;;5356720;26;20858;-81
2024/04/18 09:03:14;;;;;;;1.50;1.00;;;13.50;98.20;;;;;;5343857;26;21185;-80
2024/04/18 09:05:45;;;;;;;1.50;1.00;;;13.50;98.20;;;;;;5373135;26;20472;-80
2024/04/18 09:08:20;;;;;;;1.50;1.00;;;13.70;98.20;;;;;;5321314;26;20565;-80
2024/04/18 09:10:58;;;;;;;1.50;1.00;;;13.70;98.20;;;;;;5368400;26;20468;-80
2024/04/18 09:13:27;;;;;;;1.50;0.90;;;13.80;98.20;;;;;;5367764;26;20499;-82
2024/04/18 09:16:02;;;;;;;1.50;1.00;;;13.60;98.20;;;;;;5367834;26;20460;-82
2024/04/18 09:18:44;;;;;;;1.50;1.00;;;13.50;98.20;;;;;;5355643;26;20458;-81
2024/04/18 09:21:20;;;;;;;1.50;1.00;;;13.30;98.20;;;;;;5357545;26;20588;-82
2024/04/18 09:24:22;;;;;;;1.50;0.90;;;13.10;98.20;;;;;;5360443;26;20988;-81
2024/04/18 09:26:51;;;;;;;1.50;1.00;;;12.90;98.20;;;;;;5223564;27;20646;-80
2024/04/18 09:29:38;;;;;;;1.50;1.00;;;12.80;98.20;;;;;;5334512;26;20531;-80
2024/04/18 09:32:26;;;;;;;1.50;1.00;;;12.70;98.20;;;;;;5336423;26;20613;-80
2024/04/18 09:35:03;;;;;;;1.50;1.00;;;12.80;98.20;;;;;;5359572;26;20559;-80
2024/04/18 09:37:41;;;;;;;1.50;1.00;;;13.20;98.20;;;;;;5332064;26;20575;-80
2024/04/18 09:40:33;;;;;;;1.50;0.93;;;13.70;98.20;;;;;;5374478;26;20838;-81
2024/04/18 09:51:58;;;;;;;1.50;1.00;;;14.40;97.90;;;;;;5233115;26;20490;-80
2024/04/18 09:54:29;;;;;;;1.50;0.90;;;14.10;97.90;;;;;;5374990;26;20532;-81
2024/04/18 09:57:06;;;;;;;1.50;1.00;;;13.80;97.50;;;;;;5365357;26;20504;-79
2024/04/18 09:59:40;;;;;;;1.50;1.00;;;13.60;98.20;;;;;;5372846;26;20599;-80
2024/04/18 10:02:18;;;;;;;1.50;1.00;;;13.30;97.80;;;;;;5347877;26;20608;-80
2024/04/18 10:04:53;;;;;;;1.50;1.00;;;13.30;98.20;;;;;;5362666;26;20659;-80
2024/04/18 10:07:37;;;;;;;1.50;1.00;;;13.30;98.20;;;;;;5358543;26;20508;-81
2024/04/18 10:10:14;;;;;;;1.50;0.90;;;13.50;98.20;;;;;;5373820;26;20488;-81
2024/04/18 10:12:47;;;;;;;1.50;1.00;;;13.80;98.20;;;;;;5366763;26;20536;-81
2024/04/18 10:15:25;;;;;;;1.50;1.00;;;14.20;97.10;;;;;;5376014;26;20492;-81
2024/04/18 10:21:58;;;;;;;1.50;0.90;;;15.10;94.30;;;;;;5321589;26;20556;-82
2024/04/18 10:24:45;;;;;;;1.50;1.00;;;15.40;92.60;;;;;;5369078;26;20472;-82
2024/04/18 10:27:21;;;;;;;1.50;1.00;;;15.50;92.60;;;;;;5355518;26;20496;-82
2024/04/18 10:29:58;;;;;;;1.50;0.90;;;15.80;93.90;;;;;;5353634;26;20632;-81
2024/04/18 10:32:31;;;;;;;1.50;0.90;;;16.00;92.60;;;;;;5351885;26;20493;-82
2024/04/18 10:35:04;;;;;;;1.50;0.90;;;16.20;90.20;;;;;;5365712;26;20546;-81
2024/04/18 10:38:19;;;;;;;1.50;1.00;;;16.40;89.70;;;;;;5364490;26;20549;-81
2024/04/18 10:41:30;;;;;;;1.50;0.90;;;16.50;87.70;;;;;;5370235;26;20564;-80
2024/04/18 10:44:24;;;;;;;;;;;;;;;;;;;;;
2024/04/18 10:50:08;;;;;;;1.47;0.90;;;16.50;84.50;;;;;;5311328;26;20468;-82
2024/04/18 10:52:43;;;;;;;1.47;0.90;;;16.70;85.20;;;;;;5300651;26;20470;-80
2024/04/18 10:58:56;;;;;;;1.50;0.90;;;17.00;81.50;;;;;;5146752;27;20835;-80
2024/04/18 11:01:55;;;;;;;1.50;0.90;;;17.20;78.60;;;;;;5160819;27;20543;-81
2024/04/18 11:04:28;;;;;;;1.50;0.90;;;17.40;77.10;;;;;;5258074;27;20488;-81
2024/04/18 11:07:03;;;;;;;1.50;0.90;;;17.60;78.70;;;;;;5244538;27;20688;-80
2024/04/18 11:09:51;;;;;;;1.50;0.90;;;17.70;79.70;;;;;;5261604;27;20481;-80
2024/04/18 11:12:23;;;;;;;1.47;0.90;;;17.90;77.90;;;;;;5250130;27;20502;-80
2024/04/18 11:15:03;;;;;;;1.47;0.90;;;18.20;78.30;;;;;;5262616;27;21066;-81
2024/04/18 11:17:47;;;;;;;1.47;0.90;;;18.40;77.40;;;;;;5242315;27;21169;-81
2024/04/18 11:20:22;;;;;;;1.50;1.00;;;18.10;77.20;;;;;;5263045;27;20485;-81
2024/04/18 11:22:57;;;;;;;1.47;0.90;;;17.60;79.60;;;;;;5253115;27;20492;-82
2024/04/18 11:25:55;;;;;;;1.47;0.90;;;17.10;78.00;;;;;;5247211;27;20477;-80
2024/04/18 11:28:27;;;;;;;1.47;0.90;;;16.80;80.90;;;;;;5202673;27;20551;-80
2024/04/18 11:31:09;;;;;;;1.40;0.90;;;16.90;81.40;;;;;;5255318;26;20533;-81
2024/04/18 11:33:45;;;;;;;1.50;0.90;;;17.20;79.60;;;;;;5271692;26;20525;-81
2024/04/18 11:36:13;;;;;;;1.50;0.90;;;17.60;81.60;;;;;;5254975;27;20526;-81
2024/04/18 11:39:03;;;;;;;1.50;0.90;;;17.90;79.60;;;;;;5263537;27;20556;-80
2024/04/18 11:41:42;;;;;;;1.50;0.90;;;17.50;77.30;;;;;;5251273;27;20493;-80
2024/04/18 11:44:15;;;;;;;1.50;0.90;;;17.10;78.50;;;;;;5261651;27;20794;-81
2024/04/18 11:46:45;;;;;;;1.50;0.90;;;16.80;80.00;;;;;;5257790;26;20560;-82
2024/04/18 11:49:16;;;;;;;1.43;0.90;;;16.30;81.60;;;;;;5264824;27;20516;-80
2024/04/18 11:51:46;;;;;;;1.47;0.90;;;15.90;81.20;;;;;;5251280;27;20930;-80
2024/04/18 11:54:16;;;;;;;1.47;0.90;;;15.70;82.40;;;;;;5254374;27;20640;-81
2024/04/18 11:56:49;;;;;;;1.50;0.90;;;15.90;83.90;;;;;;5253397;27;21099;-81
2024/04/18 11:59:22;;;;;;;1.50;0.90;;;16.50;82.10;;;;;;5259086;27;21113;-82
2024/04/18 12:01:54;;;;;;;1.47;0.90;;;16.70;80.90;;;;;;5240633;27;20500;-81
2024/04/18 12:04:51;;;;;;;1.50;0.90;;;16.70;79.50;;;;;;5249952;27;20530;-81
2024/04/18 12:07:28;;;;;;;1.47;0.90;;;16.40;79.30;;;;;;5249869;27;20510;-82
2024/04/18 12:13:45;;;;;;;1.50;0.90;;;15.80;83.70;;;;;;5153047;27;20633;-82
2024/04/18 12:16:21;;;;;;;1.50;1.00;;;15.90;83.20;;;;;;5233484;26;20581;-81
2024/04/18 12:19:00;;;;;;;1.50;0.93;;;15.90;81.40;;;;;;5268298;27;20472;-82
2024/04/18 12:21:28;;;;;;;1.50;0.90;;;15.90;82.50;;;;;;5246312;27;20557;-81
2024/04/18 12:23:57;;;;;;;1.50;0.90;;;15.60;81.30;;;;;;5259103;27;20477;-81
2024/04/18 12:26:47;;;;;;;1.50;1.00;;;15.50;81.70;;;;;;5241984;27;21055;-81
2024/04/18 12:29:27;;;;;;;1.47;0.90;;;15.30;83.30;;;;;;5219961;27;20633;-82
2024/04/18 12:32:17;;;;;;;1.50;0.90;;;15.10;81.20;;;;;;5247834;27;20510;-81
2024/04/18 12:34:45;;;;;;;1.47;0.90;;;15.20;84.20;;;;;;5251920;27;20476;-80
2024/04/18 12:37:14;;;;;;;1.43;0.90;;;15.60;82.30;;;;;;5249434;26;20508;-80
2024/04/18 12:39:43;;;;;;;1.43;0.90;;;15.60;81.30;;;;;;5259239;27;20920;-81
2024/04/18 12:42:12;;;;;;;1.47;1.00;;;15.50;80.40;;;;;;5235778;27;20506;-80
2024/04/18 12:44:43;;;;;;;1.43;0.90;;;15.30;80.70;;;;;;5255273;27;20517;-81
2024/04/18 12:48:01;;;;;;;1.50;0.90;;;15.10;82.70;;;;;;5255974;27;20508;-80
2024/04/18 12:50:29;;;;;;;1.50;1.00;;;15.00;84.60;;;;;;5232249;27;20504;-81
2024/04/18 12:52:56;;;;;;;1.50;0.97;;;15.00;83.90;;;;;;5233640;27;20505;-81
2024/04/18 12:55:24;;;;;;;1.47;0.90;;;14.90;82.00;;;;;;5262720;27;20477;-81
2024/04/18 12:57:54;;;;;;;1.47;0.90;;;15.00;83.80;;;;;;5253036;27;20508;-79
2024/04/18 13:00:56;;;;;;;1.50;0.90;;;15.30;82.90;;;;;;5261114;27;20470;-80
2024/04/18 13:03:24;;;;;;;1.47;0.90;;;15.70;81.90;;;;;;5224689;27;20502;-80
2024/04/18 13:05:53;;;;;;;1.50;0.90;;;16.20;80.80;;;;;;5262401;26;20477;-81
2024/04/18 13:08:21;;;;;;;1.43;0.90;;;16.30;81.30;;;;;;5265644;27;20548;-81
2024/04/18 13:10:58;;;;;;;1.50;0.90;;;16.40;79.70;;;;;;5250276;27;20536;-81
2024/04/18 13:13:54;;;;;;;1.43;0.90;;;16.30;79.20;;;;;;5265283;27;20473;-80
2024/04/18 13:16:25;;;;;;;1.50;1.00;;;16.10;79.30;;;;;;5221528;27;21228;-81
2024/04/18 13:18:54;;;;;;;1.47;0.90;;;16.30;81.70;;;;;;5271662;27;20480;-80
2024/04/18 13:21:22;;;;;;;1.47;0.90;;;16.60;82.10;;;;;;5248258;27;20583;-80
2024/04/18 13:24:13;;;;;;;1.50;0.90;;;17.00;79.90;;;;;;5261867;27;20544;-81
2024/04/18 13:26:41;;;;;;;1.50;0.90;;;17.60;80.10;;;;;;5257236;27;20508;-81
2024/04/18 13:29:12;;;;;;;1.50;1.20;;;17.80;79.80;;;;;;5264597;27;20484;-80
2024/04/18 13:31:41;;;;;;;1.47;0.90;;;17.80;77.90;;;;;;5246324;27;20653;-81
2024/04/18 13:34:09;;;;;;;1.43;0.90;;;17.70;76.20;;;;;;5260717;27;20484;-81
2024/04/18 13:36:56;;;;;;;1.47;0.90;;;17.60;77.90;;;;;;5249961;27;20508;-82
2024/04/18 13:39:24;;;;;;;1.43;0.90;;;17.70;78.40;;;;;;5260851;27;20474;-79
2024/04/18 13:41:52;;;;;;;1.50;0.90;;;18.00;77.30;;;;;;5244445;27;20510;-79
2024/04/18 13:44:21;;;;;;;1.47;0.90;;;18.30;76.30;;;;;;5264591;27;20970;-80